Station: Wandering

  Atmospheric Gas Attenuation - ITU Rec 676-11   --------------- db/100km ---------------
Date Time Temp RH % AH g/m3 Dew Point Wind Direction Speed kph Gust kph Barometer mB Rainfall Since 9am 24GHz 47GHz 76GHz 122GHz 134GHz 241GHz
04 05:10 5.7 99 7.05 5.6 11 11 1013.1 1.4 16.6 25.7 37.4 97.9 87.1 297.9
04 05:00 5.4 99 6.91 5.3 7 9 1013.1 1.4 16.3 25.5 36.9 96.7 85.5 292.2
04 04:50 5.7 100 7.12 5.7 7 9 1013.1 1.4 16.8 25.8 37.7 98.7 88.1 301.3
04 04:40 5 99 6.73 4.9 9 9 1013.1 1.4 16.0 25.3 36.3 95.1 83.5 284.9
04 04:30 5.2 100 6.89 5.2 6 9 1013.1 1.4 16.3 25.5 36.9 96.7 85.5 292.0
04 04:20 5.3 100 6.94 5.3 0 0 1013.1 1.4 16.4 25.6 37.1 97.1 86.0 294.1
04 04:10 5.3 100 6.94 5.3 0 0 1013.1 1.4 16.4 25.6 37.1 97.1 86.0 294.1
04 04:00 5.2 99 6.82 5.1 4 7 1013.1 1.4 16.1 25.4 36.6 95.9 84.5 288.6
04 03:40 4.7 99 6.6 4.6 6 7 1013.1 1.4 15.7 25.2 35.9 94.0 82.0 279.7
04 03:30 4.5 99 6.51 4.4 4 7 1013.1 1.4 15.5 25.1 35.6 93.3 80.9 276.1
04 03:20 4.8 99 6.64 4.7 4 6 1013.1 1.4 15.8 25.2 36.1 94.4 82.4 281.3
04 03:10 4.8 98 6.58 4.5 2 4 1013.1 1.4 15.6 25.1 35.8 93.7 81.6 278.4
04 03:00 4.9 98 6.62 4.6 6 7 1013.1 1.4 15.7 25.2 35.9 94.0 82.0 280.0
04 02:50 4.7 97 6.47 4.3 6 7 1013.1 1.4 15.4 25.0 35.4 92.6 80.2 273.4
04 02:40 5 97 6.6 4.6 6 6 1013.1 1.4 15.7 25.1 35.8 93.7 81.7 278.6
04 02:30 5.4 97 6.77 5 6 7 1013.1 1.4 16.0 25.3 36.3 95.1 83.6 285.4
04 02:20 5.7 96 6.84 5.1 4 6 1013.1 1.4 16.2 25.3 36.5 95.5 84.2 287.7
04 02:10 6 96 6.97 5.4 6 7 1013.1 1.4 16.4 25.5 36.9 96.6 85.7 292.9
04 02:00 6.4 96 7.16 5.8 6 9 1013.1 1.4 16.8 25.7 37.5 98.2 87.8 300.5
04 01:50 6.6 97 7.33 6.2 0 0 1013.1 1.4 17.2 25.9 38.1 99.9 90.0 308.0
04 01:30 6.9 96 7.39 6.3 0 0 1013.1 1.4 17.3 25.9 38.2 100.2 90.5 309.7
04 01:20 6.9 96 7.39 6.3 0 0 1013.1 1.4 17.3 25.9 38.2 100.2 90.5 309.7
04 01:10 7 96 7.44 6.4 6 6 1013.1 1.4 17.4 26.0 38.4 100.6 91.0 311.8
04 01:00 6.9 98 7.55 6.6 6 9 1013.1 1.4 17.7 26.2 38.9 102.0 92.7 317.5
04 00:50 6.6 98 7.4 6.3 0 0 1013.1 1.4 17.3 26.0 38.4 100.7 91.0 311.4
04 00:40 6.5 99 7.43 6.4 2 6 1013.1 1.4 17.4 26.1 38.6 101.1 91.5 313.3
04 00:30 6.4 99 7.38 6.3 0 6 1013.1 1.4 17.3 26.0 38.4 100.7 90.9 311.3
04 00:20 6.1 100 7.31 6.1 6 6 1013.1 1.4 17.2 26.0 38.3 100.3 90.3 309.0
04 00:10 6.4 100 7.46 6.4 2 6 1013.1 1.4 17.5 26.2 38.8 101.6 92.0 315.2
04 00:00 6 100 7.26 6 0 0 1013.1 1.4 17.1 25.9 38.1 99.9 89.7 307.0
03 23:50 6.1 100 7.31 6.1 0 0 1013.1 1.4 17.2 26.0 38.3 100.3 90.3 309.0
03 23:40 5.5 100 7.03 5.5 0 0 1013.1 1.4 16.6 25.7 37.4 97.9 87.1 297.7
03 23:30 5.1 99 6.78 5 0 0 1013.1 1.4 16.1 25.4 36.5 95.6 84.0 287.0
03 23:20 4.9 99 6.69 4.8 0 0 1013.1 1.4 15.9 25.3 36.2 94.8 83.0 283.4
03 23:10 4.9 99 6.69 4.8 2 4 1013.1 1.4 15.9 25.3 36.2 94.8 83.0 283.4
03 23:00 4.7 99 6.6 4.6 6 6 1013.1 1.4 15.7 25.2 35.9 94.0 82.0 279.7
03 22:50 5.1 99 6.78 5 4 6 1013.1 1.4 16.1 25.4 36.5 95.6 84.0 287.0
03 22:40 4.6 98 6.49 4.3 6 6 1013.1 1.4 15.5 25.0 35.5 92.9 80.6 274.7
03 22:30 4.7 98 6.53 4.4 6 7 1013.1 1.4 15.5 25.1 35.6 93.3 81.0 276.3
03 22:20 5.5 98 6.89 5.2 7 7 1013.1 1.4 16.3 25.5 36.8 96.3 85.1 290.9
03 22:10 5.4 97 6.77 5 6 6 1013.1 1.4 16.0 25.3 36.3 95.1 83.6 285.4
03 22:00 5.1 96 6.57 4.5 6 9 1013.1 1.4 15.6 25.0 35.6 93.2 81.1 276.8
03 21:50 6.2 97 7.14 5.8 0 0 1013.1 1.4 16.8 25.7 37.5 98.3 87.8 300.3
03 21:40 6.4 96 7.16 5.8 0 0 1013.1 1.4 16.8 25.7 37.5 98.2 87.8 300.5
03 21:30 6.5 96 7.2 5.9 0 0 1013.1 1.4 16.9 25.7 37.6 98.6 88.3 302.1
03 21:20 6.8 95 7.27 6.1 0 0 1013.1 1.4 17.1 25.7 37.8 99.0 88.9 304.3
03 21:10 7.1 95 7.41 6.4 0 0 1013.1 1.4 17.3 25.9 38.2 100.1 90.5 309.9
03 21:00 7.5 95 7.61 6.8 0 0 1013.1 1.4 17.8 26.1 38.9 101.9 92.8 318.0
03 20:50 7.8 93 7.59 6.7 0 0 1013.1 1.4 17.7 26.0 38.6 101.3 92.2 315.8
03 20:40 7.9 93 7.64 6.8 0 0 1013.1 1.4 17.8 26.0 38.8 101.7 92.7 317.8
03 20:30 8 92 7.61 6.8 6 9 1013.1 1.4 17.7 25.9 38.6 101.2 92.2 316.0
03 20:20 8.2 89 7.46 6.5 9 9 1013.1 1.4 17.4 25.6 37.9 99.3 89.9 308.0
03 20:10 8.2 91 7.62 6.8 9 13 1013.1 1.4 17.7 25.9 38.6 101.1 92.1 315.6
03 20:00 8.2 91 7.62 6.8 7 9 1013.1 1.4 17.7 25.9 38.6 101.1 92.1 315.6
03 19:50 8.2 91 7.62 6.8 7 9 1013.1 1.2 17.7 25.9 38.6 101.1 92.1 315.6
03 19:40 8.4 88 7.47 6.5 7 9 1013.1 1.2 17.4 25.6 37.8 99.1 89.8 307.6
03 19:30 8.5 89 7.6 6.8 9 15 1013.1 1 17.7 25.8 38.3 100.5 91.5 313.5
03 19:20 8.7 86 7.44 6.5 7 9 1013.1 1 17.3 25.5 37.6 98.4 89.0 305.0
03 19:10 9.1 86 7.63 6.9 9 11 1013.1 0.8 17.7 25.7 38.2 100.0 91.2 312.5
03 19:00 9.4 87 7.87 7.3 11 17 1013.1 0.8 18.2 26.0 39.0 102.3 94.1 322.7
03 18:50 9.5 87 7.92 7.4 7 9 1013.1 0.8 18.3 26.0 39.2 102.7 94.6 324.7
03 18:40 9.6 87 7.97 7.5 9 11 1013.1 0.4 18.4 26.1 39.3 103.1 95.2 326.7
03 18:30 9.8 86 7.98 7.6 11 17 1013.1 0.4 18.4 26.0 39.3 103.0 95.1 326.3
03 18:20 10 84 7.9 7.4 7 9 1013.1 0.4 18.3 25.8 38.8 101.8 93.7 321.7
03 18:10 10 84 7.9 7.4 7 9 1013.1 0.2 18.3 25.8 38.8 101.8 93.7 321.7
03 18:00 10.2 81 7.71 7.1 11 17 1013.1 0.2 17.9 25.5 38.0 99.5 90.9 311.9
03 17:50 10.4 82 7.9 7.5 13 15 1013.1 0.2 18.2 25.7 38.6 101.3 93.3 320.0
03 17:40 10.7 78 7.66 7 13 19 1013.1 0.2 17.7 25.3 37.5 98.3 89.7 307.6
03 17:30 10.8 78 7.71 7.1 15 20 1013.1 0.2 17.8 25.3 37.7 98.7 90.2 309.5
03 17:20 10.9 78 7.76 7.2 13 15 1013.1 0.2 17.9 25.4 37.8 99.2 90.8 311.4
03 17:10 11.2 77 7.81 7.3 15 20 1013.1 0.2 18.0 25.4 37.9 99.3 91.1 312.6
03 17:00 11.1 79 7.96 7.6 11 15 1013.1 0.2 18.3 25.6 38.5 101.1 93.2 320.0
03 16:50 11.4 73 7.49 6.7 11 13 1013.1 0.2 17.3 24.8 36.5 95.6 86.6 297.0
03 16:40 11.3 76 7.75 7.2 13 17 1013.1 0.2 17.9 25.2 37.6 98.5 90.2 309.4
03 16:30 11.5 73 7.54 6.8 9 17 1013.1 0.2 17.4 24.8 36.7 96.1 87.2 298.9
03 16:20 12.4 59 6.45 4.6 7 9 1013.1 0.2 15.1 22.9 32.1 83.8 72.4 247.1
03 16:10 12.5 59 6.49 4.7 7 9 1013.1 0.2 15.1 22.9 32.2 84.1 72.8 248.6
03 16:00 12.6 59 6.53 4.8 9 13 1013.1 0.2 15.2 23.0 32.3 84.4 73.2 250.0
03 15:50 12.8 59 6.61 5 7 9 1013.1 0.2 15.4 23.0 32.5 85.0 74.0 252.9
03 15:40 13 57 6.46 4.7 9 11 1013.1 0.2 15.1 22.8 31.9 83.2 72.0 245.7
03 15:30 13.3 58 6.7 5.2 11 15 1013.1 0.2 15.6 23.0 32.6 85.3 74.6 255.2
03 15:20 13.7 58 6.87 5.6 7 9 1013.1 0.2 15.9 23.2 33.1 86.6 76.4 261.3
03 15:10 12.8 59 6.61 5 11 11 1013.1 0.2 15.4 23.0 32.5 85.0 74.0 252.9
03 15:00 12.7 58 6.46 4.7 7 15 1013.1 0.2 15.1 22.8 32.0 83.6 72.2 246.6
03 14:50 12.8 57 6.39 4.5 7 7 1013.1 0.2 14.9 22.7 31.7 82.8 71.3 243.3
03 14:40 12.9 59 6.65 5.1 11 13 1013.1 0.2 15.5 23.1 32.6 85.3 74.4 254.3
03 14:30 13 59 6.69 5.2 9 20 1013.1 0.2 15.6 23.1 32.7 85.5 74.8 255.7
03 14:20 12.9 63 7.1 6 6 7 1013.1 0.2 16.4 23.8 34.3 89.8 80.0 274.0
03 14:10 12.6 61 6.75 5.3 9 11 1013.1 0.2 15.7 23.3 33.1 86.6 75.9 259.6
03 14:00 12.9 61 6.88 5.6 13 19 1013.1 0.2 16.0 23.4 33.5 87.6 77.3 264.3
03 13:50 13.4 64 7.44 6.7 9 11 1013.1 0.2 17.1 24.2 35.4 92.7 83.8 287.4
03 13:40 13.3 64 7.39 6.6 11 17 1013.1 0.2 17.0 24.1 35.3 92.3 83.3 285.5
03 13:30 12.7 67 7.46 6.7 11 17 1013.1 0.2 17.2 24.4 35.8 93.8 84.8 290.8
03 13:20 12.6 68 7.52 6.9 11 13 1013.1 0.2 17.3 24.5 36.1 94.5 85.7 293.9
03 13:10 12.3 64 6.95 5.7 13 17 1013.1 0.2 16.1 23.7 34.0 89.0 78.7 269.4
03 13:00 13.1 66 7.53 6.9 6 11 1013.1 0.2 17.3 24.4 35.9 94.0 85.3 292.5
03 12:50 12.7 68 7.57 7 7 9 1013.1 0.2 17.4 24.6 36.2 94.9 86.2 295.8
03 12:40 11.7 65 6.8 5.3 9 11 1013.1 0.2 15.8 23.6 33.7 88.1 77.4 264.8
03 12:30 12.2 62 6.69 5.1 6 13 1013.1 0.2 15.6 23.3 33.0 86.4 75.6 258.3
03 12:20 12.8 74 8.29 8.3 6 7 1013.1 0.2 19.0 25.7 39.0 102.4 95.5 328.3

Last Refresh: 04-Aug-2020 07:01:34

Most of the information presented on this site is sourced from the Bureau of Meteorology.  Copyright in all material sourced from the Bureau of Meteorology resides with the Commonwealth of Australia.